sensor_id;sensor_type;location;lat;lon;timestamp;pressure;altitude;pressure_sealevel;temperature;humidity
56600;BME280;51832;48.152;11.530;2023-01-29T00:00:33;96317.78;;;4.15;71.58
56600;BME280;51832;48.152;11.530;2023-01-29T00:05:34;96309.81;;;3.50;73.30
56600;BME280;51832;48.152;11.530;2023-01-29T00:10:34;96316.47;;;3.95;71.11
56600;BME280;51832;48.152;11.530;2023-01-29T00:15:35;96305.69;;;3.81;72.24
56600;BME280;51832;48.152;11.530;2023-01-29T00:20:35;96320.44;;;3.65;72.40
56600;BME280;51832;48.152;11.530;2023-01-29T00:25:36;96320.84;;;3.94;71.38
56600;BME280;51832;48.152;11.530;2023-01-29T00:30:37;96325.44;;;4.16;71.72
56600;BME280;51832;48.152;11.530;2023-01-29T00:35:39;96342.75;;;3.83;71.83
56600;BME280;51832;48.152;11.530;2023-01-29T00:40:40;96333.47;;;3.73;72.41
56600;BME280;51832;48.152;11.530;2023-01-29T00:45:59;96333.56;;;4.05;71.28
56600;BME280;51832;48.152;11.530;2023-01-29T00:51:00;96331.25;;;3.94;71.23
56600;BME280;51832;48.152;11.530;2023-01-29T00:56:01;96331.75;;;3.98;70.71
56600;BME280;51832;48.152;11.530;2023-01-29T01:01:02;96330.75;;;3.99;70.54
56600;BME280;51832;48.152;11.530;2023-01-29T01:06:04;96325.28;;;4.99;67.09
56600;BME280;51832;48.152;11.530;2023-01-29T01:11:05;96322.13;;;3.98;69.54
56600;BME280;51832;48.152;11.530;2023-01-29T01:16:14;96334.06;;;4.25;68.89
56600;BME280;51832;48.152;11.530;2023-01-29T01:21:14;96336.47;;;3.52;69.97
56600;BME280;51832;48.152;11.530;2023-01-29T01:26:15;96334.03;;;3.50;70.55
56600;BME280;51832;48.152;11.530;2023-01-29T01:31:15;96342.44;;;3.36;71.94
56600;BME280;51832;48.152;11.530;2023-01-29T01:36:16;96348.63;;;3.77;69.21
56600;BME280;51832;48.152;11.530;2023-01-29T01:41:19;96334.72;;;4.27;68.10
56600;BME280;51832;48.152;11.530;2023-01-29T01:46:23;96344.63;;;4.07;67.05
56600;BME280;51832;48.152;11.530;2023-01-29T01:51:25;96331.13;;;4.12;67.79
56600;BME280;51832;48.152;11.530;2023-01-29T01:56:31;96332.09;;;4.03;67.13
56600;BME280;51832;48.152;11.530;2023-01-29T02:01:39;96338.56;;;3.99;67.88
56600;BME280;51832;48.152;11.530;2023-01-29T02:06:42;96337.50;;;4.09;67.59
56600;BME280;51832;48.152;11.530;2023-01-29T02:12:07;96345.34;;;3.67;67.94
56600;BME280;51832;48.152;11.530;2023-01-29T02:17:13;96337.81;;;4.14;66.50
56600;BME280;51832;48.152;11.530;2023-01-29T02:32:52;96348.78;;;4.58;64.97
56600;BME280;51832;48.152;11.530;2023-01-29T02:44:02;96324.81;;;4.22;64.78
56600;BME280;51832;48.152;11.530;2023-01-29T02:54:26;96313.22;;;4.09;64.37
56600;BME280;51832;48.152;11.530;2023-01-29T02:59:34;96311.28;;;4.27;63.17
56600;BME280;51832;48.152;11.530;2023-01-29T03:04:41;96320.91;;;4.35;63.48
56600;BME280;51832;48.152;11.530;2023-01-29T03:09:47;96315.19;;;4.39;62.16
56600;BME280;51832;48.152;11.530;2023-01-29T03:14:50;96308.34;;;4.14;63.01
56600;BME280;51832;48.152;11.530;2023-01-29T03:20:15;96310.53;;;3.76;65.13
56600;BME280;51832;48.152;11.530;2023-01-29T03:25:18;96316.34;;;4.20;62.88
56600;BME280;51832;48.152;11.530;2023-01-29T03:30:47;96325.00;;;4.37;62.39
56600;BME280;51832;48.152;11.530;2023-01-29T03:41:32;96325.78;;;4.21;62.97
56600;BME280;51832;48.152;11.530;2023-01-29T03:46:38;96328.66;;;3.94;63.60
56600;BME280;51832;48.152;11.530;2023-01-29T04:02:31;96287.19;;;4.41;62.44
56600;BME280;51832;48.152;11.530;2023-01-29T04:07:35;96288.31;;;4.39;62.68
56600;BME280;51832;48.152;11.530;2023-01-29T04:12:44;96289.97;;;4.40;63.40
56600;BME280;51832;48.152;11.530;2023-01-29T04:17:49;96297.47;;;4.59;62.71
56600;BME280;51832;48.152;11.530;2023-01-29T04:22:52;96294.84;;;4.59;61.33
56600;BME280;51832;48.152;11.530;2023-01-29T04:38:15;96295.19;;;4.23;62.20
56600;BME280;51832;48.152;11.530;2023-01-29T04:43:21;96300.38;;;4.32;62.32
56600;BME280;51832;48.152;11.530;2023-01-29T04:48:30;96306.56;;;4.39;62.57
56600;BME280;51832;48.152;11.530;2023-01-29T04:58:39;96295.63;;;4.11;63.15
56600;BME280;51832;48.152;11.530;2023-01-29T05:03:48;96283.75;;;4.24;62.26
56600;BME280;51832;48.152;11.530;2023-01-29T05:08:50;96293.06;;;4.35;62.95
56600;BME280;51832;48.152;11.530;2023-01-29T05:13:51;96313.34;;;3.99;64.06
56600;BME280;51832;48.152;11.530;2023-01-29T05:18:52;96304.78;;;4.23;63.22
56600;BME280;51832;48.152;11.530;2023-01-29T05:24:25;96307.53;;;4.29;62.49
56600;BME280;51832;48.152;11.530;2023-01-29T05:29:26;96321.09;;;4.49;62.60
56600;BME280;51832;48.152;11.530;2023-01-29T05:34:26;96332.53;;;3.82;65.17
56600;BME280;51832;48.152;11.530;2023-01-29T05:39:27;96339.34;;;3.83;65.16
56600;BME280;51832;48.152;11.530;2023-01-29T05:44:27;96343.09;;;3.38;66.01
56600;BME280;51832;48.152;11.530;2023-01-29T05:49:28;96338.09;;;4.03;64.69
56600;BME280;51832;48.152;11.530;2023-01-29T05:54:28;96347.97;;;3.83;64.46
56600;BME280;51832;48.152;11.530;2023-01-29T05:59:29;96335.50;;;4.03;63.47
56600;BME280;51832;48.152;11.530;2023-01-29T06:04:30;96334.78;;;3.85;63.17
56600;BME280;51832;48.152;11.530;2023-01-29T06:09:30;96341.84;;;3.92;63.94
56600;BME280;51832;48.152;11.530;2023-01-29T06:14:31;96330.47;;;3.60;64.56
56600;BME280;51832;48.152;11.530;2023-01-29T06:19:32;96323.81;;;4.07;62.92
56600;BME280;51832;48.152;11.530;2023-01-29T06:24:32;96325.34;;;3.76;64.38
56600;BME280;51832;48.152;11.530;2023-01-29T06:29:33;96332.75;;;4.13;63.42
56600;BME280;51832;48.152;11.530;2023-01-29T06:34:33;96338.97;;;4.20;63.06
56600;BME280;51832;48.152;11.530;2023-01-29T06:39:34;96339.47;;;4.40;61.17
56600;BME280;51832;48.152;11.530;2023-01-29T06:44:35;96337.19;;;4.28;62.26
56600;BME280;51832;48.152;11.530;2023-01-29T06:49:35;96344.19;;;4.20;62.42
56600;BME280;51832;48.152;11.530;2023-01-29T06:54:36;96344.50;;;4.25;62.33
56600;BME280;51832;48.152;11.530;2023-01-29T06:59:36;96351.50;;;4.16;62.04
56600;BME280;51832;48.152;11.530;2023-01-29T07:04:37;96334.38;;;4.06;63.29
56600;BME280;51832;48.152;11.530;2023-01-29T07:09:41;96347.66;;;3.78;64.42
56600;BME280;51832;48.152;11.530;2023-01-29T07:14:42;96338.78;;;4.13;62.91
56600;BME280;51832;48.152;11.530;2023-01-29T07:19:42;96328.72;;;4.35;61.81
56600;BME280;51832;48.152;11.530;2023-01-29T07:24:43;96310.66;;;4.33;61.04
56600;BME280;51832;48.152;11.530;2023-01-29T07:29:43;96313.91;;;4.76;60.36
56600;BME280;51832;48.152;11.530;2023-01-29T07:34:44;96318.66;;;4.64;59.17
56600;BME280;51832;48.152;11.530;2023-01-29T07:39:44;96315.84;;;4.82;59.41
56600;BME280;51832;48.152;11.530;2023-01-29T07:44:46;96306.25;;;4.66;59.88
56600;BME280;51832;48.152;11.530;2023-01-29T07:49:47;96303.16;;;4.54;60.13
56600;BME280;51832;48.152;11.530;2023-01-29T07:54:47;96306.59;;;4.63;59.22
56600;BME280;51832;48.152;11.530;2023-01-29T07:59:48;96303.97;;;4.63;59.60
56600;BME280;51832;48.152;11.530;2023-01-29T08:04:48;96307.22;;;4.57;59.80
56600;BME280;51832;48.152;11.530;2023-01-29T08:09:49;96298.94;;;4.37;60.07
56600;BME280;51832;48.152;11.530;2023-01-29T08:14:49;96306.72;;;4.05;61.78
56600;BME280;51832;48.152;11.530;2023-01-29T08:19:50;96307.88;;;4.43;59.61
56600;BME280;51832;48.152;11.530;2023-01-29T08:24:50;96302.84;;;4.33;59.71
56600;BME280;51832;48.152;11.530;2023-01-29T08:29:51;96319.47;;;4.48;58.08
56600;BME280;51832;48.152;11.530;2023-01-29T08:34:52;96324.59;;;4.00;60.01
56600;BME280;51832;48.152;11.530;2023-01-29T08:39:52;96326.13;;;4.43;59.03
56600;BME280;51832;48.152;11.530;2023-01-29T08:44:53;96344.84;;;4.79;57.32
56600;BME280;51832;48.152;11.530;2023-01-29T08:49:53;96339.16;;;4.35;58.91
56600;BME280;51832;48.152;11.530;2023-01-29T08:54:54;96349.75;;;4.57;58.67
56600;BME280;51832;48.152;11.530;2023-01-29T08:59:54;96355.78;;;4.82;57.14
56600;BME280;51832;48.152;11.530;2023-01-29T09:04:55;96359.50;;;4.39;57.79
56600;BME280;51832;48.152;11.530;2023-01-29T09:09:57;96357.56;;;4.49;58.28
56600;BME280;51832;48.152;11.530;2023-01-29T09:14:57;96367.34;;;4.63;58.07
56600;BME280;51832;48.152;11.530;2023-01-29T09:19:58;96376.91;;;6.53;71.47
56600;BME280;51832;48.152;11.530;2023-01-29T09:24:58;96382.78;;;7.16;56.76
56600;BME280;51832;48.152;11.530;2023-01-29T09:29:59;96381.97;;;6.01;54.29
56600;BME280;51832;48.152;11.530;2023-01-29T09:35:00;96386.38;;;5.21;56.45
56600;BME280;51832;48.152;11.530;2023-01-29T09:40:00;96394.41;;;5.03;57.54
56600;BME280;51832;48.152;11.530;2023-01-29T09:50:14;96405.16;;;4.01;61.88
56600;BME280;51832;48.152;11.530;2023-01-29T09:55:32;96402.00;;;4.32;60.93
56600;BME280;51832;48.152;11.530;2023-01-29T10:00:39;96399.69;;;4.20;62.11
56600;BME280;51832;48.152;11.530;2023-01-29T10:10:50;96391.78;;;5.11;58.89
56600;BME280;51832;48.152;11.530;2023-01-29T10:16:16;96386.75;;;4.77;58.85
56600;BME280;51832;48.152;11.530;2023-01-29T10:26:32;96384.78;;;5.04;57.16
56600;BME280;51832;48.152;11.530;2023-01-29T10:31:38;96390.81;;;5.04;58.34
56600;BME280;51832;48.152;11.530;2023-01-29T10:36:43;96376.28;;;5.10;57.92
56600;BME280;51832;48.152;11.530;2023-01-29T10:47:22;96378.13;;;4.77;58.61
56600;BME280;51832;48.152;11.530;2023-01-29T10:53:04;96366.19;;;4.98;56.13
56600;BME280;51832;48.152;11.530;2023-01-29T11:03:27;96369.63;;;4.99;57.90
56600;BME280;51832;48.152;11.530;2023-01-29T11:13:59;96352.66;;;4.95;57.32
56600;BME280;51832;48.152;11.530;2023-01-29T11:19:04;96347.13;;;4.98;57.63
56600;BME280;51832;48.152;11.530;2023-01-29T11:29:32;96345.78;;;5.26;56.08
56600;BME280;51832;48.152;11.530;2023-01-29T11:34:58;96341.84;;;5.78;54.96
56600;BME280;51832;48.152;11.530;2023-01-29T11:39:59;96341.19;;;5.84;53.91
56600;BME280;51832;48.152;11.530;2023-01-29T11:44:59;96329.22;;;5.58;54.20
56600;BME280;51832;48.152;11.530;2023-01-29T11:50:01;96320.47;;;5.43;54.60
56600;BME280;51832;48.152;11.530;2023-01-29T11:55:05;96281.41;;;5.58;54.53
56600;BME280;51832;48.152;11.530;2023-01-29T12:00:32;96254.81;;;5.54;55.08
56600;BME280;51832;48.152;11.530;2023-01-29T12:05:33;96253.16;;;5.22;55.69
56600;BME280;51832;48.152;11.530;2023-01-29T12:10:40;96250.03;;;5.27;55.90
56600;BME280;51832;48.152;11.530;2023-01-29T12:15:42;96249.78;;;5.14;56.30
56600;BME280;51832;48.152;11.530;2023-01-29T12:20:51;96249.16;;;5.04;57.08
56600;BME280;51832;48.152;11.530;2023-01-29T12:42:47;96248.75;;;4.76;58.30
56600;BME280;51832;48.152;11.530;2023-01-29T12:47:56;96250.44;;;5.47;55.93
56600;BME280;51832;48.152;11.530;2023-01-29T12:53:04;96240.66;;;5.49;56.00
56600;BME280;51832;48.152;11.530;2023-01-29T12:58:29;96228.13;;;5.44;55.52
56600;BME280;51832;48.152;11.530;2023-01-29T13:03:53;96217.34;;;5.08;56.51
56600;BME280;51832;48.152;11.530;2023-01-29T13:08:58;96203.97;;;4.64;58.80
56600;BME280;51832;48.152;11.530;2023-01-29T13:14:19;96192.31;;;4.91;58.02
56600;BME280;51832;48.152;11.530;2023-01-29T13:19:26;96199.69;;;4.71;57.62
56600;BME280;51832;48.152;11.530;2023-01-29T13:24:35;96181.13;;;5.13;57.25
56600;BME280;51832;48.152;11.530;2023-01-29T13:29:38;96176.75;;;5.45;58.43
56600;BME280;51832;48.152;11.530;2023-01-29T13:34:46;96179.88;;;5.01;57.99
56600;BME280;51832;48.152;11.530;2023-01-29T13:39:51;96178.00;;;5.49;56.55
56600;BME280;51832;48.152;11.530;2023-01-29T13:44:55;96169.72;;;5.06;57.61
56600;BME280;51832;48.152;11.530;2023-01-29T13:50:04;96172.56;;;4.33;59.90
56600;BME280;51832;48.152;11.530;2023-01-29T13:55:27;96166.06;;;3.97;61.15
56600;BME280;51832;48.152;11.530;2023-01-29T14:05:41;96153.34;;;4.42;59.79
56600;BME280;51832;48.152;11.530;2023-01-29T14:10:42;96152.59;;;4.73;58.54
56600;BME280;51832;48.152;11.530;2023-01-29T14:21:03;96138.38;;;4.91;58.01
56600;BME280;51832;48.152;11.530;2023-01-29T14:36:41;96159.25;;;4.04;60.06
56600;BME280;51832;48.152;11.530;2023-01-29T14:41:42;96171.41;;;4.44;58.72
56600;BME280;51832;48.152;11.530;2023-01-29T14:46:43;96180.59;;;4.79;58.38
56600;BME280;51832;48.152;11.530;2023-01-29T14:51:44;96174.88;;;4.91;57.87
56600;BME280;51832;48.152;11.530;2023-01-29T14:56:58;96174.84;;;4.99;57.59
56600;BME280;51832;48.152;11.530;2023-01-29T15:02:12;96173.03;;;4.45;59.33
56600;BME280;51832;48.152;11.530;2023-01-29T15:17:29;96153.88;;;4.13;59.45
56600;BME280;51832;48.152;11.530;2023-01-29T15:22:41;96156.59;;;4.44;58.95
56600;BME280;51832;48.152;11.530;2023-01-29T15:27:43;96169.59;;;4.60;58.01
56600;BME280;51832;48.152;11.530;2023-01-29T15:32:45;96172.41;;;3.70;60.95
56600;BME280;51832;48.152;11.530;2023-01-29T15:37:58;96165.72;;;4.24;59.32
56600;BME280;51832;48.152;11.530;2023-01-29T15:42:59;96163.88;;;4.57;58.61
56600;BME280;51832;48.152;11.530;2023-01-29T15:48:05;96173.91;;;3.88;61.21
56600;BME280;51832;48.152;11.530;2023-01-29T15:53:13;96167.84;;;4.28;59.84
56600;BME280;51832;48.152;11.530;2023-01-29T15:58:18;96171.78;;;4.08;60.65
56600;BME280;51832;48.152;11.530;2023-01-29T16:03:23;96180.53;;;4.40;60.11
56600;BME280;51832;48.152;11.530;2023-01-29T16:08:25;96167.41;;;4.09;60.47
56600;BME280;51832;48.152;11.530;2023-01-29T16:13:29;96178.44;;;4.11;60.84
56600;BME280;51832;48.152;11.530;2023-01-29T16:18:36;96181.06;;;3.86;61.50
56600;BME280;51832;48.152;11.530;2023-01-29T16:23:43;96184.78;;;3.76;62.05
56600;BME280;51832;48.152;11.530;2023-01-29T16:28:45;96192.38;;;3.37;62.82
56600;BME280;51832;48.152;11.530;2023-01-29T16:33:46;96182.53;;;3.81;61.90
56600;BME280;51832;48.152;11.530;2023-01-29T16:38:59;96191.97;;;3.82;62.08
56600;BME280;51832;48.152;11.530;2023-01-29T16:44:03;96202.22;;;3.17;63.13
56600;BME280;51832;48.152;11.530;2023-01-29T16:54:28;96207.72;;;3.72;61.90
56600;BME280;51832;48.152;11.530;2023-01-29T16:59:36;96221.03;;;3.69;62.16
56600;BME280;51832;48.152;11.530;2023-01-29T17:04:39;96221.09;;;4.02;61.73
56600;BME280;51832;48.152;11.530;2023-01-29T17:09:40;96220.44;;;4.00;61.37
56600;BME280;51832;48.152;11.530;2023-01-29T17:14:55;96213.22;;;3.53;62.59
56600;BME280;51832;48.152;11.530;2023-01-29T17:19:57;96235.47;;;3.47;63.36
56600;BME280;51832;48.152;11.530;2023-01-29T17:24:58;96230.19;;;3.81;62.56
56600;BME280;51832;48.152;11.530;2023-01-29T17:29:58;96230.19;;;3.89;61.83
56600;BME280;51832;48.152;11.530;2023-01-29T17:34:59;96221.69;;;3.55;63.26
56600;BME280;51832;48.152;11.530;2023-01-29T17:39:59;96227.66;;;3.47;63.42
56600;BME280;51832;48.152;11.530;2023-01-29T17:45:00;96229.75;;;3.28;63.66
56600;BME280;51832;48.152;11.530;2023-01-29T17:50:00;96232.72;;;3.07;64.07
56600;BME280;51832;48.152;11.530;2023-01-29T17:55:00;96228.25;;;3.25;63.07
56600;BME280;51832;48.152;11.530;2023-01-29T18:00:18;96228.22;;;3.17;63.45
56600;BME280;51832;48.152;11.530;2023-01-29T18:05:19;96230.28;;;3.05;63.72
56600;BME280;51832;48.152;11.530;2023-01-29T18:10:20;96232.88;;;3.05;63.36
56600;BME280;51832;48.152;11.530;2023-01-29T18:15:20;96222.94;;;2.67;64.63
56600;BME280;51832;48.152;11.530;2023-01-29T18:20:22;96222.97;;;2.75;65.42
56600;BME280;51832;48.152;11.530;2023-01-29T18:25:24;96225.22;;;2.96;64.60
56600;BME280;51832;48.152;11.530;2023-01-29T18:30:25;96220.81;;;2.96;64.31
56600;BME280;51832;48.152;11.530;2023-01-29T18:35:26;96205.25;;;3.04;64.00
56600;BME280;51832;48.152;11.530;2023-01-29T18:40:26;96214.31;;;2.92;64.08
56600;BME280;51832;48.152;11.530;2023-01-29T18:45:27;96204.63;;;3.69;62.46
56600;BME280;51832;48.152;11.530;2023-01-29T18:50:27;96207.91;;;3.79;61.72
56600;BME280;51832;48.152;11.530;2023-01-29T18:55:28;96214.72;;;3.13;64.33
56600;BME280;51832;48.152;11.530;2023-01-29T19:00:28;96206.47;;;2.84;65.15
56600;BME280;51832;48.152;11.530;2023-01-29T19:05:32;96215.81;;;2.69;64.78
56600;BME280;51832;48.152;11.530;2023-01-29T19:10:32;96217.28;;;2.71;64.68
56600;BME280;51832;48.152;11.530;2023-01-29T19:15:33;96210.38;;;2.54;65.25
56600;BME280;51832;48.152;11.530;2023-01-29T19:20:34;96215.59;;;2.62;65.34
56600;BME280;51832;48.152;11.530;2023-01-29T19:25:38;96213.38;;;2.41;65.96
56600;BME280;51832;48.152;11.530;2023-01-29T19:30:38;96205.44;;;2.77;65.15
56600;BME280;51832;48.152;11.530;2023-01-29T19:35:43;96204.88;;;2.31;65.61
56600;BME280;51832;48.152;11.530;2023-01-29T19:40:44;96205.72;;;2.66;64.35
56600;BME280;51832;48.152;11.530;2023-01-29T19:45:45;96205.22;;;2.36;65.16
56600;BME280;51832;48.152;11.530;2023-01-29T19:50:53;96187.66;;;2.04;67.16
56600;BME280;51832;48.152;11.530;2023-01-29T19:55:59;96184.50;;;2.19;66.13
56600;BME280;51832;48.152;11.530;2023-01-29T20:01:12;96194.53;;;2.39;65.65
56600;BME280;51832;48.152;11.530;2023-01-29T20:06:16;96189.59;;;2.28;66.24
56600;BME280;51832;48.152;11.530;2023-01-29T20:11:19;96181.03;;;2.10;66.80
56600;BME280;51832;48.152;11.530;2023-01-29T20:16:21;96179.91;;;2.64;65.45
56600;BME280;51832;48.152;11.530;2023-01-29T20:21:21;96183.75;;;2.26;66.15
56600;BME280;51832;48.152;11.530;2023-01-29T20:26:22;96181.41;;;2.15;66.05
56600;BME280;51832;48.152;11.530;2023-01-29T20:31:22;96183.72;;;1.83;67.25
56600;BME280;51832;48.152;11.530;2023-01-29T20:36:23;96184.63;;;1.73;67.30
56600;BME280;51832;48.152;11.530;2023-01-29T20:41:23;96181.44;;;2.23;66.20
56600;BME280;51832;48.152;11.530;2023-01-29T20:46:24;96173.97;;;1.59;67.85
56600;BME280;51832;48.152;11.530;2023-01-29T20:51:26;96160.31;;;1.74;67.60
56600;BME280;51832;48.152;11.530;2023-01-29T20:56:26;96174.34;;;2.07;66.41
56600;BME280;51832;48.152;11.530;2023-01-29T21:01:27;96151.28;;;1.61;67.53
56600;BME280;51832;48.152;11.530;2023-01-29T21:06:28;96151.44;;;1.59;67.02
56600;BME280;51832;48.152;11.530;2023-01-29T21:11:28;96165.44;;;1.49;67.82
56600;BME280;51832;48.152;11.530;2023-01-29T21:16:29;96154.66;;;1.97;66.68
56600;BME280;51832;48.152;11.530;2023-01-29T21:21:29;96152.41;;;1.76;66.81
56600;BME280;51832;48.152;11.530;2023-01-29T21:26:30;96154.53;;;2.06;66.17
56600;BME280;51832;48.152;11.530;2023-01-29T21:31:30;96170.13;;;1.63;67.22
56600;BME280;51832;48.152;11.530;2023-01-29T21:36:32;96167.09;;;1.50;68.41
56600;BME280;51832;48.152;11.530;2023-01-29T21:41:33;96158.97;;;1.88;66.31
56600;BME280;51832;48.152;11.530;2023-01-29T21:46:52;96165.19;;;1.24;68.44
56600;BME280;51832;48.152;11.530;2023-01-29T21:51:53;96164.13;;;1.62;67.13
56600;BME280;51832;48.152;11.530;2023-01-29T21:56:53;96156.72;;;1.50;67.77
56600;BME280;51832;48.152;11.530;2023-01-29T22:01:54;96137.44;;;1.34;68.19
56600;BME280;51832;48.152;11.530;2023-01-29T22:06:54;96142.53;;;1.26;68.19
56600;BME280;51832;48.152;11.530;2023-01-29T22:11:55;96146.69;;;1.19;68.29
56600;BME280;51832;48.152;11.530;2023-01-29T22:16:55;96148.16;;;1.39;68.35
56600;BME280;51832;48.152;11.530;2023-01-29T22:21:56;96146.97;;;1.16;68.52
56600;BME280;51832;48.152;11.530;2023-01-29T22:26:57;96132.13;;;1.36;67.31
56600;BME280;51832;48.152;11.530;2023-01-29T22:31:57;96133.19;;;1.51;66.60
56600;BME280;51832;48.152;11.530;2023-01-29T22:36:58;96119.34;;;1.42;67.25
56600;BME280;51832;48.152;11.530;2023-01-29T22:41:58;96112.25;;;1.09;68.24
56600;BME280;51832;48.152;11.530;2023-01-29T22:46:59;96094.81;;;1.37;68.17
56600;BME280;51832;48.152;11.530;2023-01-29T22:52:00;96091.44;;;1.19;68.24
56600;BME280;51832;48.152;11.530;2023-01-29T22:57:12;96080.06;;;1.55;67.03
56600;BME280;51832;48.152;11.530;2023-01-29T23:02:12;96068.63;;;1.22;67.44
56600;BME280;51832;48.152;11.530;2023-01-29T23:07:13;96065.38;;;1.02;67.99
56600;BME280;51832;48.152;11.530;2023-01-29T23:12:14;96055.88;;;1.11;67.64
56600;BME280;51832;48.152;11.530;2023-01-29T23:17:15;96056.53;;;1.49;66.65
56600;BME280;51832;48.152;11.530;2023-01-29T23:22:15;96053.44;;;1.71;66.16
56600;BME280;51832;48.152;11.530;2023-01-29T23:27:16;96051.25;;;1.58;66.12
56600;BME280;51832;48.152;11.530;2023-01-29T23:32:19;96039.75;;;1.17;67.56
56600;BME280;51832;48.152;11.530;2023-01-29T23:37:19;96032.09;;;0.62;69.11
56600;BME280;51832;48.152;11.530;2023-01-29T23:42:20;96039.16;;;0.88;67.92
56600;BME280;51832;48.152;11.530;2023-01-29T23:47:20;96033.16;;;1.05;67.74
56600;BME280;51832;48.152;11.530;2023-01-29T23:52:21;96023.53;;;1.15;67.41
56600;BME280;51832;48.152;11.530;2023-01-29T23:57:21;96025.09;;;0.90;67.85
